sensor_id;sensor_type;location;lat;lon;timestamp;P1;durP1;ratioP1;P2;durP2;ratioP2
36009;SDS011;22076;52.182;5.404;2023-06-24T00:00:09;14.30;;;9.52;;
36009;SDS011;22076;52.182;5.404;2023-06-24T00:02:37;12.80;;;9.32;;
36009;SDS011;22076;52.182;5.404;2023-06-24T00:05:06;14.95;;;9.93;;
36009;SDS011;22076;52.182;5.404;2023-06-24T00:07:33;9.18;;;7.40;;
36009;SDS011;22076;52.182;5.404;2023-06-24T00:10:10;10.75;;;7.60;;
36009;SDS011;22076;52.182;5.404;2023-06-24T00:12:37;15.80;;;9.90;;
36009;SDS011;22076;52.182;5.404;2023-06-24T00:15:05;8.80;;;7.25;;
36009;SDS011;22076;52.182;5.404;2023-06-24T00:17:33;9.18;;;7.05;;
36009;SDS011;22076;52.182;5.404;2023-06-24T00:19:59;7.45;;;5.72;;
36009;SDS011;22076;52.182;5.404;2023-06-24T00:22:26;15.63;;;10.68;;
36009;SDS011;22076;52.182;5.404;2023-06-24T00:24:52;9.32;;;7.75;;
36009;SDS011;22076;52.182;5.404;2023-06-24T00:27:20;14.55;;;10.82;;
36009;SDS011;22076;52.182;5.404;2023-06-24T00:29:47;11.75;;;8.13;;
36009;SDS011;22076;52.182;5.404;2023-06-24T00:32:14;7.80;;;6.68;;
36009;SDS011;22076;52.182;5.404;2023-06-24T00:34:40;10.88;;;7.82;;
36009;SDS011;22076;52.182;5.404;2023-06-24T00:37:08;19.02;;;10.10;;
36009;SDS011;22076;52.182;5.404;2023-06-24T00:39:35;12.57;;;9.63;;
36009;SDS011;22076;52.182;5.404;2023-06-24T00:42:02;11.07;;;8.73;;
36009;SDS011;22076;52.182;5.404;2023-06-24T00:44:30;10.40;;;7.90;;
36009;SDS011;22076;52.182;5.404;2023-06-24T00:46:56;10.20;;;7.45;;
36009;SDS011;22076;52.182;5.404;2023-06-24T00:49:23;11.13;;;8.15;;
36009;SDS011;22076;52.182;5.404;2023-06-24T00:51:50;9.73;;;6.93;;
36009;SDS011;22076;52.182;5.404;2023-06-24T00:54:16;15.60;;;10.35;;
36009;SDS011;22076;52.182;5.404;2023-06-24T00:56:43;12.98;;;8.50;;
36009;SDS011;22076;52.182;5.404;2023-06-24T00:59:12;11.85;;;8.57;;
36009;SDS011;22076;52.182;5.404;2023-06-24T01:01:41;9.35;;;6.75;;
36009;SDS011;22076;52.182;5.404;2023-06-24T01:04:09;11.52;;;9.07;;
36009;SDS011;22076;52.182;5.404;2023-06-24T01:06:36;13.60;;;10.80;;
36009;SDS011;22076;52.182;5.404;2023-06-24T01:09:08;9.18;;;6.38;;
36009;SDS011;22076;52.182;5.404;2023-06-24T01:11:35;7.25;;;6.00;;
36009;SDS011;22076;52.182;5.404;2023-06-24T01:14:01;10.65;;;7.32;;
36009;SDS011;22076;52.182;5.404;2023-06-24T01:16:30;10.63;;;7.38;;
36009;SDS011;22076;52.182;5.404;2023-06-24T01:19:03;10.27;;;7.80;;
36009;SDS011;22076;52.182;5.404;2023-06-24T01:21:42;7.97;;;6.25;;
36009;SDS011;22076;52.182;5.404;2023-06-24T01:24:17;12.85;;;9.95;;
36009;SDS011;22076;52.182;5.404;2023-06-24T01:29:59;7.90;;;6.40;;
36009;SDS011;22076;52.182;5.404;2023-06-24T01:32:37;8.35;;;6.00;;
36009;SDS011;22076;52.182;5.404;2023-06-24T01:35:07;12.27;;;7.65;;
36009;SDS011;22076;52.182;5.404;2023-06-24T01:37:36;16.75;;;11.38;;
36009;SDS011;22076;52.182;5.404;2023-06-24T01:40:07;15.93;;;11.23;;
36009;SDS011;22076;52.182;5.404;2023-06-24T01:42:37;13.57;;;9.85;;
36009;SDS011;22076;52.182;5.404;2023-06-24T01:45:06;11.15;;;7.68;;
36009;SDS011;22076;52.182;5.404;2023-06-24T01:47:33;10.35;;;6.68;;
36009;SDS011;22076;52.182;5.404;2023-06-24T01:50:03;12.23;;;8.43;;
36009;SDS011;22076;52.182;5.404;2023-06-24T01:52:30;9.00;;;7.30;;
36009;SDS011;22076;52.182;5.404;2023-06-24T01:54:58;17.77;;;11.23;;
36009;SDS011;22076;52.182;5.404;2023-06-24T01:57:25;9.88;;;7.35;;
36009;SDS011;22076;52.182;5.404;2023-06-24T01:59:53;13.32;;;9.93;;
36009;SDS011;22076;52.182;5.404;2023-06-24T02:02:20;10.75;;;7.30;;
36009;SDS011;22076;52.182;5.404;2023-06-24T02:04:49;8.77;;;6.47;;
36009;SDS011;22076;52.182;5.404;2023-06-24T02:07:16;15.05;;;10.30;;
36009;SDS011;22076;52.182;5.404;2023-06-24T02:09:45;10.45;;;7.43;;
36009;SDS011;22076;52.182;5.404;2023-06-24T02:12:12;13.15;;;10.48;;
36009;SDS011;22076;52.182;5.404;2023-06-24T02:14:39;11.93;;;8.60;;
36009;SDS011;22076;52.182;5.404;2023-06-24T02:17:08;9.73;;;7.18;;
36009;SDS011;22076;52.182;5.404;2023-06-24T02:19:36;13.80;;;9.85;;
36009;SDS011;22076;52.182;5.404;2023-06-24T02:22:06;10.25;;;8.07;;
36009;SDS011;22076;52.182;5.404;2023-06-24T02:24:34;11.45;;;8.85;;
36009;SDS011;22076;52.182;5.404;2023-06-24T02:27:02;13.75;;;9.25;;
36009;SDS011;22076;52.182;5.404;2023-06-24T02:29:30;9.98;;;8.35;;
36009;SDS011;22076;52.182;5.404;2023-06-24T02:31:57;10.52;;;7.20;;
36009;SDS011;22076;52.182;5.404;2023-06-24T02:34:23;9.13;;;6.18;;
36009;SDS011;22076;52.182;5.404;2023-06-24T02:36:50;9.50;;;8.02;;
36009;SDS011;22076;52.182;5.404;2023-06-24T02:39:18;8.45;;;7.03;;
36009;SDS011;22076;52.182;5.404;2023-06-24T02:41:46;10.07;;;7.25;;
36009;SDS011;22076;52.182;5.404;2023-06-24T02:44:14;11.68;;;8.77;;
36009;SDS011;22076;52.182;5.404;2023-06-24T02:46:41;12.48;;;8.65;;
36009;SDS011;22076;52.182;5.404;2023-06-24T02:49:08;8.68;;;6.78;;
36009;SDS011;22076;52.182;5.404;2023-06-24T02:51:37;13.55;;;6.72;;
36009;SDS011;22076;52.182;5.404;2023-06-24T02:54:05;8.68;;;6.82;;
36009;SDS011;22076;52.182;5.404;2023-06-24T02:56:34;8.65;;;6.95;;
36009;SDS011;22076;52.182;5.404;2023-06-24T02:59:01;10.98;;;6.97;;
36009;SDS011;22076;52.182;5.404;2023-06-24T03:01:28;9.75;;;7.88;;
36009;SDS011;22076;52.182;5.404;2023-06-24T03:03:55;7.50;;;6.38;;
36009;SDS011;22076;52.182;5.404;2023-06-24T03:06:22;9.93;;;6.40;;
36009;SDS011;22076;52.182;5.404;2023-06-24T03:08:49;15.57;;;10.27;;
36009;SDS011;22076;52.182;5.404;2023-06-24T03:11:16;10.25;;;7.40;;
36009;SDS011;22076;52.182;5.404;2023-06-24T03:13:44;8.77;;;7.22;;
36009;SDS011;22076;52.182;5.404;2023-06-24T03:16:11;8.18;;;6.78;;
36009;SDS011;22076;52.182;5.404;2023-06-24T03:18:39;11.50;;;7.53;;
36009;SDS011;22076;52.182;5.404;2023-06-24T03:21:07;12.43;;;8.82;;
36009;SDS011;22076;52.182;5.404;2023-06-24T03:23:33;8.93;;;7.13;;
36009;SDS011;22076;52.182;5.404;2023-06-24T03:26:00;9.68;;;6.03;;
36009;SDS011;22076;52.182;5.404;2023-06-24T03:28:27;14.60;;;8.95;;
36009;SDS011;22076;52.182;5.404;2023-06-24T03:30:56;10.25;;;8.32;;
36009;SDS011;22076;52.182;5.404;2023-06-24T03:33:22;13.05;;;8.52;;
36009;SDS011;22076;52.182;5.404;2023-06-24T03:35:49;10.98;;;7.90;;
36009;SDS011;22076;52.182;5.404;2023-06-24T03:38:16;8.10;;;6.70;;
36009;SDS011;22076;52.182;5.404;2023-06-24T03:40:43;9.40;;;6.28;;
36009;SDS011;22076;52.182;5.404;2023-06-24T03:43:09;8.18;;;6.82;;
36009;SDS011;22076;52.182;5.404;2023-06-24T03:45:36;9.05;;;6.78;;
36009;SDS011;22076;52.182;5.404;2023-06-24T03:48:05;8.00;;;5.93;;
36009;SDS011;22076;52.182;5.404;2023-06-24T03:50:31;7.93;;;5.90;;
36009;SDS011;22076;52.182;5.404;2023-06-24T03:52:58;10.45;;;6.88;;
36009;SDS011;22076;52.182;5.404;2023-06-24T03:55:25;14.27;;;9.88;;
36009;SDS011;22076;52.182;5.404;2023-06-24T03:57:51;8.52;;;7.00;;
36009;SDS011;22076;52.182;5.404;2023-06-24T04:00:18;10.60;;;6.93;;
36009;SDS011;22076;52.182;5.404;2023-06-24T04:02:45;14.73;;;10.52;;
36009;SDS011;22076;52.182;5.404;2023-06-24T04:05:14;8.20;;;6.28;;
36009;SDS011;22076;52.182;5.404;2023-06-24T04:07:40;8.88;;;7.00;;
36009;SDS011;22076;52.182;5.404;2023-06-24T04:10:12;12.57;;;9.18;;
36009;SDS011;22076;52.182;5.404;2023-06-24T04:12:39;10.23;;;7.72;;
36009;SDS011;22076;52.182;5.404;2023-06-24T04:15:06;8.15;;;5.47;;
36009;SDS011;22076;52.182;5.404;2023-06-24T04:17:36;14.48;;;8.30;;
36009;SDS011;22076;52.182;5.404;2023-06-24T04:20:03;12.43;;;7.97;;
36009;SDS011;22076;52.182;5.404;2023-06-24T04:22:33;10.55;;;6.95;;
36009;SDS011;22076;52.182;5.404;2023-06-24T04:25:01;12.13;;;7.70;;
36009;SDS011;22076;52.182;5.404;2023-06-24T04:27:27;17.63;;;11.25;;
36009;SDS011;22076;52.182;5.404;2023-06-24T04:29:54;10.40;;;7.70;;
36009;SDS011;22076;52.182;5.404;2023-06-24T04:32:21;16.70;;;10.50;;
36009;SDS011;22076;52.182;5.404;2023-06-24T04:34:48;10.60;;;7.57;;
36009;SDS011;22076;52.182;5.404;2023-06-24T04:37:15;8.48;;;6.10;;
36009;SDS011;22076;52.182;5.404;2023-06-24T04:39:43;15.57;;;9.43;;
36009;SDS011;22076;52.182;5.404;2023-06-24T04:42:10;12.85;;;9.02;;
36009;SDS011;22076;52.182;5.404;2023-06-24T04:44:37;10.70;;;7.97;;
36009;SDS011;22076;52.182;5.404;2023-06-24T04:47:04;14.70;;;9.32;;
36009;SDS011;22076;52.182;5.404;2023-06-24T04:49:30;13.45;;;8.68;;
36009;SDS011;22076;52.182;5.404;2023-06-24T04:51:59;11.25;;;7.85;;
36009;SDS011;22076;52.182;5.404;2023-06-24T04:54:26;12.25;;;8.65;;
36009;SDS011;22076;52.182;5.404;2023-06-24T04:56:54;10.73;;;7.55;;
36009;SDS011;22076;52.182;5.404;2023-06-24T04:59:22;11.02;;;7.82;;
36009;SDS011;22076;52.182;5.404;2023-06-24T05:01:49;10.55;;;6.95;;
36009;SDS011;22076;52.182;5.404;2023-06-24T05:04:15;9.70;;;6.43;;
36009;SDS011;22076;52.182;5.404;2023-06-24T05:06:45;8.90;;;6.43;;
36009;SDS011;22076;52.182;5.404;2023-06-24T05:09:11;9.05;;;6.43;;
36009;SDS011;22076;52.182;5.404;2023-06-24T05:11:39;8.35;;;6.45;;
36009;SDS011;22076;52.182;5.404;2023-06-24T05:14:07;7.88;;;5.90;;
36009;SDS011;22076;52.182;5.404;2023-06-24T05:16:34;7.53;;;5.15;;
36009;SDS011;22076;52.182;5.404;2023-06-24T05:19:00;7.93;;;5.53;;
36009;SDS011;22076;52.182;5.404;2023-06-24T05:21:27;8.77;;;3.80;;
36009;SDS011;22076;52.182;5.404;2023-06-24T05:23:54;8.10;;;5.13;;
36009;SDS011;22076;52.182;5.404;2023-06-24T05:26:20;10.02;;;5.20;;
36009;SDS011;22076;52.182;5.404;2023-06-24T05:28:47;5.50;;;3.53;;
36009;SDS011;22076;52.182;5.404;2023-06-24T05:31:15;7.07;;;4.30;;
36009;SDS011;22076;52.182;5.404;2023-06-24T05:33:42;7.50;;;3.78;;
36009;SDS011;22076;52.182;5.404;2023-06-24T05:36:08;6.00;;;3.95;;
36009;SDS011;22076;52.182;5.404;2023-06-24T05:38:37;5.97;;;4.07;;
36009;SDS011;22076;52.182;5.404;2023-06-24T05:41:04;6.72;;;3.83;;
36009;SDS011;22076;52.182;5.404;2023-06-24T05:43:31;3.67;;;3.20;;
36009;SDS011;22076;52.182;5.404;2023-06-24T05:45:57;8.30;;;4.22;;
36009;SDS011;22076;52.182;5.404;2023-06-24T05:48:25;4.75;;;3.80;;
36009;SDS011;22076;52.182;5.404;2023-06-24T05:50:52;7.80;;;3.70;;
36009;SDS011;22076;52.182;5.404;2023-06-24T05:53:18;5.60;;;3.58;;
36009;SDS011;22076;52.182;5.404;2023-06-24T05:55:45;6.78;;;4.00;;
36009;SDS011;22076;52.182;5.404;2023-06-24T05:58:11;8.13;;;3.88;;
36009;SDS011;22076;52.182;5.404;2023-06-24T06:00:38;4.82;;;3.35;;
36009;SDS011;22076;52.182;5.404;2023-06-24T06:03:05;5.70;;;3.38;;
36009;SDS011;22076;52.182;5.404;2023-06-24T06:05:33;7.78;;;3.72;;
36009;SDS011;22076;52.182;5.404;2023-06-24T06:07:59;7.60;;;3.65;;
36009;SDS011;22076;52.182;5.404;2023-06-24T06:10:26;8.13;;;3.85;;
36009;SDS011;22076;52.182;5.404;2023-06-24T06:12:52;5.88;;;3.80;;
36009;SDS011;22076;52.182;5.404;2023-06-24T06:15:19;5.63;;;3.88;;
36009;SDS011;22076;52.182;5.404;2023-06-24T06:17:46;6.03;;;3.78;;
36009;SDS011;22076;52.182;5.404;2023-06-24T06:20:13;4.50;;;3.30;;
36009;SDS011;22076;52.182;5.404;2023-06-24T06:22:41;6.28;;;4.43;;
36009;SDS011;22076;52.182;5.404;2023-06-24T06:25:08;5.18;;;3.70;;
36009;SDS011;22076;52.182;5.404;2023-06-24T06:27:35;6.25;;;3.40;;
36009;SDS011;22076;52.182;5.404;2023-06-24T06:30:03;6.85;;;3.22;;
36009;SDS011;22076;52.182;5.404;2023-06-24T06:32:31;5.65;;;3.72;;
36009;SDS011;22076;52.182;5.404;2023-06-24T06:34:58;7.10;;;3.80;;
36009;SDS011;22076;52.182;5.404;2023-06-24T06:37:25;8.13;;;3.95;;
36009;SDS011;22076;52.182;5.404;2023-06-24T06:39:54;6.15;;;3.80;;
36009;SDS011;22076;52.182;5.404;2023-06-24T06:42:20;6.95;;;3.95;;
36009;SDS011;22076;52.182;5.404;2023-06-24T06:44:47;8.27;;;4.05;;
36009;SDS011;22076;52.182;5.404;2023-06-24T06:47:13;4.65;;;3.47;;
36009;SDS011;22076;52.182;5.404;2023-06-24T06:49:40;5.03;;;3.42;;
36009;SDS011;22076;52.182;5.404;2023-06-24T06:52:07;9.57;;;4.60;;
36009;SDS011;22076;52.182;5.404;2023-06-24T06:54:34;5.40;;;3.67;;
36009;SDS011;22076;52.182;5.404;2023-06-24T06:57:02;5.47;;;3.60;;
36009;SDS011;22076;52.182;5.404;2023-06-24T06:59:30;6.55;;;3.90;;
36009;SDS011;22076;52.182;5.404;2023-06-24T07:01:57;8.25;;;4.38;;
36009;SDS011;22076;52.182;5.404;2023-06-24T07:04:23;6.43;;;4.18;;
36009;SDS011;22076;52.182;5.404;2023-06-24T07:06:50;6.68;;;4.45;;
36009;SDS011;22076;52.182;5.404;2023-06-24T07:09:17;5.57;;;4.00;;
36009;SDS011;22076;52.182;5.404;2023-06-24T07:11:44;4.60;;;3.03;;
36009;SDS011;22076;52.182;5.404;2023-06-24T07:14:12;4.93;;;4.03;;
36009;SDS011;22076;52.182;5.404;2023-06-24T07:16:39;6.75;;;3.50;;
36009;SDS011;22076;52.182;5.404;2023-06-24T07:19:05;6.63;;;3.58;;
36009;SDS011;22076;52.182;5.404;2023-06-24T07:21:32;5.63;;;3.75;;
36009;SDS011;22076;52.182;5.404;2023-06-24T07:23:58;6.55;;;3.70;;
36009;SDS011;22076;52.182;5.404;2023-06-24T07:26:25;7.95;;;4.60;;
36009;SDS011;22076;52.182;5.404;2023-06-24T07:28:53;4.78;;;3.25;;
36009;SDS011;22076;52.182;5.404;2023-06-24T07:31:23;6.43;;;3.67;;
36009;SDS011;22076;52.182;5.404;2023-06-24T07:33:50;7.78;;;3.90;;
36009;SDS011;22076;52.182;5.404;2023-06-24T07:36:17;6.68;;;4.20;;
36009;SDS011;22076;52.182;5.404;2023-06-24T07:38:43;8.35;;;4.30;;
36009;SDS011;22076;52.182;5.404;2023-06-24T07:41:10;5.13;;;3.00;;
36009;SDS011;22076;52.182;5.404;2023-06-24T07:43:37;5.30;;;2.80;;
36009;SDS011;22076;52.182;5.404;2023-06-24T07:46:04;5.55;;;3.17;;
36009;SDS011;22076;52.182;5.404;2023-06-24T07:48:32;6.07;;;3.78;;
36009;SDS011;22076;52.182;5.404;2023-06-24T07:50:59;6.05;;;4.32;;
36009;SDS011;22076;52.182;5.404;2023-06-24T07:53:25;4.95;;;3.80;;
36009;SDS011;22076;52.182;5.404;2023-06-24T07:55:52;5.18;;;3.38;;
36009;SDS011;22076;52.182;5.404;2023-06-24T07:58:19;5.18;;;3.55;;
36009;SDS011;22076;52.182;5.404;2023-06-24T08:00:45;6.30;;;4.00;;
36009;SDS011;22076;52.182;5.404;2023-06-24T08:03:12;7.70;;;5.05;;
36009;SDS011;22076;52.182;5.404;2023-06-24T08:05:43;7.50;;;4.15;;
36009;SDS011;22076;52.182;5.404;2023-06-24T08:08:10;6.30;;;3.25;;
36009;SDS011;22076;52.182;5.404;2023-06-24T08:10:36;6.03;;;3.13;;
36009;SDS011;22076;52.182;5.404;2023-06-24T08:13:03;4.55;;;3.47;;
36009;SDS011;22076;52.182;5.404;2023-06-24T08:15:29;5.45;;;3.58;;
36009;SDS011;22076;52.182;5.404;2023-06-24T08:17:56;5.40;;;3.75;;
36009;SDS011;22076;52.182;5.404;2023-06-24T08:20:23;4.72;;;2.92;;
36009;SDS011;22076;52.182;5.404;2023-06-24T08:22:51;4.80;;;3.20;;
36009;SDS011;22076;52.182;5.404;2023-06-24T08:25:18;6.82;;;3.72;;
36009;SDS011;22076;52.182;5.404;2023-06-24T08:27:44;6.15;;;4.05;;
36009;SDS011;22076;52.182;5.404;2023-06-24T08:30:12;4.25;;;3.78;;
36009;SDS011;22076;52.182;5.404;2023-06-24T08:32:39;5.30;;;3.10;;
36009;SDS011;22076;52.182;5.404;2023-06-24T08:35:06;9.15;;;3.75;;
36009;SDS011;22076;52.182;5.404;2023-06-24T08:37:33;5.72;;;3.53;;
36009;SDS011;22076;52.182;5.404;2023-06-24T08:40:01;4.55;;;3.28;;
36009;SDS011;22076;52.182;5.404;2023-06-24T08:42:29;5.60;;;3.55;;
36009;SDS011;22076;52.182;5.404;2023-06-24T08:44:56;3.72;;;3.20;;
36009;SDS011;22076;52.182;5.404;2023-06-24T08:47:22;5.80;;;3.88;;
36009;SDS011;22076;52.182;5.404;2023-06-24T08:49:52;3.72;;;3.20;;
36009;SDS011;22076;52.182;5.404;2023-06-24T08:52:21;7.13;;;3.80;;
36009;SDS011;22076;52.182;5.404;2023-06-24T08:54:50;7.20;;;3.33;;
36009;SDS011;22076;52.182;5.404;2023-06-24T08:57:18;4.68;;;3.30;;
36009;SDS011;22076;52.182;5.404;2023-06-24T08:59:45;3.90;;;2.95;;
36009;SDS011;22076;52.182;5.404;2023-06-24T09:02:12;5.68;;;3.53;;
36009;SDS011;22076;52.182;5.404;2023-06-24T09:04:40;5.97;;;4.07;;
36009;SDS011;22076;52.182;5.404;2023-06-24T09:07:06;5.75;;;3.45;;
36009;SDS011;22076;52.182;5.404;2023-06-24T09:09:33;4.82;;;3.28;;
36009;SDS011;22076;52.182;5.404;2023-06-24T09:12:10;7.22;;;3.97;;
36009;SDS011;22076;52.182;5.404;2023-06-24T09:14:38;6.57;;;4.20;;
36009;SDS011;22076;52.182;5.404;2023-06-24T09:17:06;4.82;;;3.42;;
36009;SDS011;22076;52.182;5.404;2023-06-24T09:19:34;5.35;;;4.22;;
36009;SDS011;22076;52.182;5.404;2023-06-24T09:22:02;4.50;;;3.40;;
36009;SDS011;22076;52.182;5.404;2023-06-24T09:24:29;3.53;;;2.88;;
36009;SDS011;22076;52.182;5.404;2023-06-24T09:26:56;5.82;;;4.43;;
36009;SDS011;22076;52.182;5.404;2023-06-24T09:29:25;7.15;;;3.85;;
36009;SDS011;22076;52.182;5.404;2023-06-24T09:31:53;8.30;;;4.13;;
36009;SDS011;22076;52.182;5.404;2023-06-24T09:34:21;5.03;;;4.38;;
36009;SDS011;22076;52.182;5.404;2023-06-24T09:36:50;5.68;;;4.10;;
36009;SDS011;22076;52.182;5.404;2023-06-24T09:39:17;7.00;;;4.65;;
36009;SDS011;22076;52.182;5.404;2023-06-24T09:41:48;5.38;;;3.50;;
36009;SDS011;22076;52.182;5.404;2023-06-24T09:44:15;5.47;;;4.15;;
36009;SDS011;22076;52.182;5.404;2023-06-24T09:46:44;5.15;;;3.83;;
36009;SDS011;22076;52.182;5.404;2023-06-24T09:49:12;5.72;;;3.45;;
36009;SDS011;22076;52.182;5.404;2023-06-24T09:51:40;6.18;;;4.10;;
36009;SDS011;22076;52.182;5.404;2023-06-24T09:54:09;4.93;;;3.65;;
36009;SDS011;22076;52.182;5.404;2023-06-24T09:56:36;4.95;;;3.58;;
36009;SDS011;22076;52.182;5.404;2023-06-24T09:59:04;7.20;;;4.10;;
36009;SDS011;22076;52.182;5.404;2023-06-24T10:01:31;7.15;;;3.72;;
36009;SDS011;22076;52.182;5.404;2023-06-24T10:03:58;3.45;;;3.08;;
36009;SDS011;22076;52.182;5.404;2023-06-24T10:06:28;6.13;;;3.70;;
36009;SDS011;22076;52.182;5.404;2023-06-24T10:08:54;5.20;;;3.92;;
36009;SDS011;22076;52.182;5.404;2023-06-24T10:11:21;4.50;;;3.67;;
36009;SDS011;22076;52.182;5.404;2023-06-24T10:13:48;6.22;;;3.83;;
36009;SDS011;22076;52.182;5.404;2023-06-24T10:16:15;4.75;;;3.67;;
36009;SDS011;22076;52.182;5.404;2023-06-24T10:18:43;7.25;;;3.90;;
36009;SDS011;22076;52.182;5.404;2023-06-24T10:21:10;4.65;;;3.67;;
36009;SDS011;22076;52.182;5.404;2023-06-24T10:23:42;7.20;;;5.22;;
36009;SDS011;22076;52.182;5.404;2023-06-24T10:26:21;8.32;;;5.65;;
36009;SDS011;22076;52.182;5.404;2023-06-24T10:31:51;6.50;;;4.65;;
36009;SDS011;22076;52.182;5.404;2023-06-24T10:34:29;7.47;;;3.70;;
36009;SDS011;22076;52.182;5.404;2023-06-24T10:36:58;6.65;;;4.95;;
36009;SDS011;22076;52.182;5.404;2023-06-24T10:39:40;4.50;;;3.65;;
36009;SDS011;22076;52.182;5.404;2023-06-24T10:42:30;8.98;;;4.93;;
36009;SDS011;22076;52.182;5.404;2023-06-24T10:45:13;5.47;;;3.88;;
36009;SDS011;22076;52.182;5.404;2023-06-24T10:47:46;4.22;;;3.72;;
36009;SDS011;22076;52.182;5.404;2023-06-24T10:50:15;4.50;;;4.10;;
36009;SDS011;22076;52.182;5.404;2023-06-24T10:52:43;6.93;;;5.15;;
36009;SDS011;22076;52.182;5.404;2023-06-24T10:55:14;5.13;;;4.00;;
36009;SDS011;22076;52.182;5.404;2023-06-24T10:57:41;8.02;;;5.90;;
36009;SDS011;22076;52.182;5.404;2023-06-24T11:00:08;7.43;;;5.07;;
36009;SDS011;22076;52.182;5.404;2023-06-24T11:02:36;7.60;;;5.43;;
36009;SDS011;22076;52.182;5.404;2023-06-24T11:05:03;4.47;;;3.42;;
36009;SDS011;22076;52.182;5.404;2023-06-24T11:07:31;4.78;;;4.05;;
36009;SDS011;22076;52.182;5.404;2023-06-24T11:10:01;4.88;;;4.18;;
36009;SDS011;22076;52.182;5.404;2023-06-24T11:12:31;7.22;;;4.10;;
36009;SDS011;22076;52.182;5.404;2023-06-24T11:14:59;6.25;;;4.13;;
36009;SDS011;22076;52.182;5.404;2023-06-24T11:17:27;5.43;;;4.53;;
36009;SDS011;22076;52.182;5.404;2023-06-24T11:19:54;6.70;;;4.65;;
36009;SDS011;22076;52.182;5.404;2023-06-24T11:22:21;6.05;;;4.50;;
36009;SDS011;22076;52.182;5.404;2023-06-24T11:24:48;6.28;;;4.80;;
36009;SDS011;22076;52.182;5.404;2023-06-24T11:27:14;7.38;;;4.20;;
36009;SDS011;22076;52.182;5.404;2023-06-24T11:29:43;7.45;;;4.60;;
36009;SDS011;22076;52.182;5.404;2023-06-24T11:32:10;7.22;;;4.28;;
36009;SDS011;22076;52.182;5.404;2023-06-24T11:34:37;5.10;;;4.57;;
36009;SDS011;22076;52.182;5.404;2023-06-24T11:37:14;5.53;;;4.35;;
36009;SDS011;22076;52.182;5.404;2023-06-24T11:39:41;5.25;;;4.55;;
36009;SDS011;22076;52.182;5.404;2023-06-24T11:42:08;5.97;;;4.60;;
36009;SDS011;22076;52.182;5.404;2023-06-24T11:44:34;7.70;;;4.80;;
36009;SDS011;22076;52.182;5.404;2023-06-24T11:47:07;4.97;;;4.40;;
36009;SDS011;22076;52.182;5.404;2023-06-24T11:49:47;5.50;;;4.60;;
36009;SDS011;22076;52.182;5.404;2023-06-24T11:52:14;7.55;;;4.60;;
36009;SDS011;22076;52.182;5.404;2023-06-24T11:54:41;6.53;;;4.72;;
36009;SDS011;22076;52.182;5.404;2023-06-24T11:57:08;7.05;;;4.65;;
36009;SDS011;22076;52.182;5.404;2023-06-24T11:59:36;4.93;;;4.43;;
36009;SDS011;22076;52.182;5.404;2023-06-24T12:02:03;5.40;;;4.60;;
36009;SDS011;22076;52.182;5.404;2023-06-24T12:04:31;6.32;;;4.72;;
36009;SDS011;22076;52.182;5.404;2023-06-24T12:06:58;6.28;;;4.78;;
36009;SDS011;22076;52.182;5.404;2023-06-24T12:09:26;6.25;;;4.65;;
36009;SDS011;22076;52.182;5.404;2023-06-24T12:11:52;5.13;;;3.95;;
36009;SDS011;22076;52.182;5.404;2023-06-24T12:14:19;6.45;;;4.78;;
36009;SDS011;22076;52.182;5.404;2023-06-24T12:16:46;7.97;;;4.93;;
36009;SDS011;22076;52.182;5.404;2023-06-24T12:19:12;10.70;;;5.93;;
36009;SDS011;22076;52.182;5.404;2023-06-24T12:21:40;7.03;;;4.82;;
36009;SDS011;22076;52.182;5.404;2023-06-24T12:24:07;7.80;;;4.85;;
36009;SDS011;22076;52.182;5.404;2023-06-24T12:26:33;6.65;;;5.25;;
36009;SDS011;22076;52.182;5.404;2023-06-24T12:29:00;9.20;;;5.35;;
36009;SDS011;22076;52.182;5.404;2023-06-24T12:31:27;8.00;;;4.07;;
36009;SDS011;22076;52.182;5.404;2023-06-24T12:33:54;12.82;;;4.85;;
36009;SDS011;22076;52.182;5.404;2023-06-24T12:36:21;6.25;;;4.70;;
36009;SDS011;22076;52.182;5.404;2023-06-24T12:38:49;6.22;;;4.18;;
36009;SDS011;22076;52.182;5.404;2023-06-24T12:41:15;6.53;;;4.07;;
36009;SDS011;22076;52.182;5.404;2023-06-24T12:43:43;4.95;;;4.22;;
36009;SDS011;22076;52.182;5.404;2023-06-24T12:46:09;6.70;;;4.70;;
36009;SDS011;22076;52.182;5.404;2023-06-24T12:48:36;10.07;;;4.72;;
36009;SDS011;22076;52.182;5.404;2023-06-24T12:51:03;4.43;;;4.03;;
36009;SDS011;22076;52.182;5.404;2023-06-24T12:53:29;5.78;;;5.18;;
36009;SDS011;22076;52.182;5.404;2023-06-24T12:55:57;5.25;;;4.22;;
36009;SDS011;22076;52.182;5.404;2023-06-24T12:58:24;7.63;;;4.72;;
36009;SDS011;22076;52.182;5.404;2023-06-24T13:00:51;8.75;;;4.93;;
36009;SDS011;22076;52.182;5.404;2023-06-24T13:03:18;6.47;;;4.80;;
36009;SDS011;22076;52.182;5.404;2023-06-24T13:05:44;5.57;;;3.83;;
36009;SDS011;22076;52.182;5.404;2023-06-24T13:08:11;4.68;;;4.18;;
36009;SDS011;22076;52.182;5.404;2023-06-24T13:10:37;4.57;;;3.65;;
36009;SDS011;22076;52.182;5.404;2023-06-24T13:13:06;5.93;;;4.40;;
36009;SDS011;22076;52.182;5.404;2023-06-24T13:15:32;8.02;;;4.78;;
36009;SDS011;22076;52.182;5.404;2023-06-24T13:17:59;4.93;;;3.63;;
36009;SDS011;22076;52.182;5.404;2023-06-24T13:20:26;11.18;;;5.85;;
36009;SDS011;22076;52.182;5.404;2023-06-24T13:22:53;5.65;;;4.13;;
36009;SDS011;22076;52.182;5.404;2023-06-24T13:25:19;7.57;;;4.57;;
36009;SDS011;22076;52.182;5.404;2023-06-24T13:27:46;5.78;;;4.50;;
36009;SDS011;22076;52.182;5.404;2023-06-24T13:30:14;4.43;;;3.60;;
36009;SDS011;22076;52.182;5.404;2023-06-24T13:32:41;5.57;;;4.88;;
36009;SDS011;22076;52.182;5.404;2023-06-24T13:35:08;4.07;;;3.47;;
36009;SDS011;22076;52.182;5.404;2023-06-24T13:37:35;6.38;;;3.95;;
36009;SDS011;22076;52.182;5.404;2023-06-24T13:40:04;6.35;;;4.35;;
36009;SDS011;22076;52.182;5.404;2023-06-24T13:42:31;6.10;;;3.72;;
36009;SDS011;22076;52.182;5.404;2023-06-24T13:44:58;5.60;;;4.63;;
36009;SDS011;22076;52.182;5.404;2023-06-24T13:47:26;4.80;;;3.85;;
36009;SDS011;22076;52.182;5.404;2023-06-24T13:49:52;4.40;;;3.90;;
36009;SDS011;22076;52.182;5.404;2023-06-24T13:52:19;6.70;;;4.60;;
36009;SDS011;22076;52.182;5.404;2023-06-24T13:54:46;5.20;;;3.42;;
36009;SDS011;22076;52.182;5.404;2023-06-24T13:57:13;5.65;;;4.43;;
36009;SDS011;22076;52.182;5.404;2023-06-24T13:59:40;6.25;;;4.60;;
36009;SDS011;22076;52.182;5.404;2023-06-24T14:02:07;6.22;;;4.22;;
36009;SDS011;22076;52.182;5.404;2023-06-24T14:04:35;5.47;;;4.10;;
36009;SDS011;22076;52.182;5.404;2023-06-24T14:07:02;5.13;;;4.35;;
36009;SDS011;22076;52.182;5.404;2023-06-24T14:09:29;5.85;;;4.45;;
36009;SDS011;22076;52.182;5.404;2023-06-24T14:11:56;5.43;;;4.40;;
36009;SDS011;22076;52.182;5.404;2023-06-24T14:14:23;6.97;;;4.32;;
36009;SDS011;22076;52.182;5.404;2023-06-24T14:16:49;5.25;;;4.00;;
36009;SDS011;22076;52.182;5.404;2023-06-24T14:19:16;6.00;;;4.20;;
36009;SDS011;22076;52.182;5.404;2023-06-24T14:21:44;10.40;;;5.03;;
36009;SDS011;22076;52.182;5.404;2023-06-24T14:24:10;5.60;;;4.07;;
36009;SDS011;22076;52.182;5.404;2023-06-24T14:26:37;4.03;;;3.47;;
36009;SDS011;22076;52.182;5.404;2023-06-24T14:29:04;7.25;;;4.20;;
36009;SDS011;22076;52.182;5.404;2023-06-24T14:31:31;5.47;;;3.50;;
36009;SDS011;22076;52.182;5.404;2023-06-24T14:33:57;8.25;;;4.80;;
36009;SDS011;22076;52.182;5.404;2023-06-24T14:36:24;6.50;;;4.30;;
36009;SDS011;22076;52.182;5.404;2023-06-24T14:38:52;4.60;;;4.03;;
36009;SDS011;22076;52.182;5.404;2023-06-24T14:41:18;4.55;;;3.80;;
36009;SDS011;22076;52.182;5.404;2023-06-24T14:43:45;4.53;;;3.83;;
36009;SDS011;22076;52.182;5.404;2023-06-24T14:46:11;6.63;;;4.10;;
36009;SDS011;22076;52.182;5.404;2023-06-24T14:48:38;5.40;;;3.95;;
36009;SDS011;22076;52.182;5.404;2023-06-24T14:51:05;4.13;;;3.72;;